sensor_id;sensor_type;location;lat;lon;timestamp;temperature;humidity
18189;DHT22;9219;50.396;8.546;2023-06-22T00:00:14;23.70;99.90
18189;DHT22;9219;50.396;8.546;2023-06-22T00:02:43;23.70;99.90
18189;DHT22;9219;50.396;8.546;2023-06-22T00:05:12;23.80;99.90
18189;DHT22;9219;50.396;8.546;2023-06-22T00:07:41;24.10;99.90
18189;DHT22;9219;50.396;8.546;2023-06-22T00:12:47;24.00;99.90
18189;DHT22;9219;50.396;8.546;2023-06-22T00:15:17;24.00;99.90
18189;DHT22;9219;50.396;8.546;2023-06-22T00:17:47;24.00;99.90
18189;DHT22;9219;50.396;8.546;2023-06-22T00:20:17;24.00;99.90
18189;DHT22;9219;50.396;8.546;2023-06-22T00:22:46;24.00;99.90
18189;DHT22;9219;50.396;8.546;2023-06-22T00:25:16;24.40;99.90
18189;DHT22;9219;50.396;8.546;2023-06-22T00:27:47;24.30;99.90
18189;DHT22;9219;50.396;8.546;2023-06-22T00:34:44;24.10;99.90
18189;DHT22;9219;50.396;8.546;2023-06-22T00:37:13;23.80;99.90
18189;DHT22;9219;50.396;8.546;2023-06-22T00:39:41;23.60;99.90
18189;DHT22;9219;50.396;8.546;2023-06-22T00:42:10;23.90;99.90
18189;DHT22;9219;50.396;8.546;2023-06-22T00:44:40;23.70;99.90
18189;DHT22;9219;50.396;8.546;2023-06-22T00:47:09;23.30;99.90
18189;DHT22;9219;50.396;8.546;2023-06-22T00:49:37;23.10;99.90
18189;DHT22;9219;50.396;8.546;2023-06-22T00:54:48;23.20;99.90
18189;DHT22;9219;50.396;8.546;2023-06-22T00:57:19;23.60;99.90
18189;DHT22;9219;50.396;8.546;2023-06-22T00:59:49;23.50;99.90
18189;DHT22;9219;50.396;8.546;2023-06-22T01:02:17;23.50;99.90
18189;DHT22;9219;50.396;8.546;2023-06-22T01:04:47;23.50;99.90
18189;DHT22;9219;50.396;8.546;2023-06-22T01:07:22;23.60;99.90
18189;DHT22;9219;50.396;8.546;2023-06-22T01:09:59;24.00;99.90
18189;DHT22;9219;50.396;8.546;2023-06-22T01:15:23;24.00;99.90
18189;DHT22;9219;50.396;8.546;2023-06-22T01:17:56;23.80;99.90
18189;DHT22;9219;50.396;8.546;2023-06-22T01:20:26;23.70;99.90
18189;DHT22;9219;50.396;8.546;2023-06-22T01:23:07;23.60;99.90
18189;DHT22;9219;50.396;8.546;2023-06-22T01:25:45;23.30;99.90
18189;DHT22;9219;50.396;8.546;2023-06-22T01:33:50;23.00;99.90
18189;DHT22;9219;50.396;8.546;2023-06-22T01:36:20;22.90;99.90
18189;DHT22;9219;50.396;8.546;2023-06-22T01:38:50;22.90;99.90
18189;DHT22;9219;50.396;8.546;2023-06-22T01:41:19;22.90;99.90
18189;DHT22;9219;50.396;8.546;2023-06-22T01:43:49;22.90;99.90
18189;DHT22;9219;50.396;8.546;2023-06-22T01:46:19;22.90;99.90
18189;DHT22;9219;50.396;8.546;2023-06-22T01:51:54;22.30;99.90
18189;DHT22;9219;50.396;8.546;2023-06-22T01:54:24;22.10;99.90
18189;DHT22;9219;50.396;8.546;2023-06-22T01:56:53;22.00;99.90
18189;DHT22;9219;50.396;8.546;2023-06-22T01:59:27;22.10;99.90
18189;DHT22;9219;50.396;8.546;2023-06-22T02:02:02;22.30;99.90
18189;DHT22;9219;50.396;8.546;2023-06-22T02:04:36;22.10;99.90
18189;DHT22;9219;50.396;8.546;2023-06-22T02:20:17;22.20;99.90
18189;DHT22;9219;50.396;8.546;2023-06-22T02:22:46;22.70;99.90
18189;DHT22;9219;50.396;8.546;2023-06-22T02:25:14;22.80;99.90
18189;DHT22;9219;50.396;8.546;2023-06-22T02:27:44;22.70;99.90
18189;DHT22;9219;50.396;8.546;2023-06-22T02:30:15;22.60;99.90
18189;DHT22;9219;50.396;8.546;2023-06-22T02:32:44;22.60;99.90
18189;DHT22;9219;50.396;8.546;2023-06-22T02:35:14;22.50;99.90
18189;DHT22;9219;50.396;8.546;2023-06-22T02:42:44;22.70;99.90
18189;DHT22;9219;50.396;8.546;2023-06-22T02:45:14;22.80;99.90
18189;DHT22;9219;50.396;8.546;2023-06-22T02:47:42;22.80;99.90
18189;DHT22;9219;50.396;8.546;2023-06-22T02:50:11;22.90;99.90
18189;DHT22;9219;50.396;8.546;2023-06-22T02:52:41;22.90;99.90
18189;DHT22;9219;50.396;8.546;2023-06-22T02:55:10;23.10;99.90
18189;DHT22;9219;50.396;8.546;2023-06-22T02:57:39;23.20;99.90
18189;DHT22;9219;50.396;8.546;2023-06-22T03:00:13;23.40;99.90
18189;DHT22;9219;50.396;8.546;2023-06-22T03:02:46;23.30;99.90
18189;DHT22;9219;50.396;8.546;2023-06-22T03:08:04;22.90;99.90
18189;DHT22;9219;50.396;8.546;2023-06-22T03:10:33;22.70;99.90
18189;DHT22;9219;50.396;8.546;2023-06-22T03:13:03;22.60;99.90
18189;DHT22;9219;50.396;8.546;2023-06-22T03:15:32;22.40;99.90
18189;DHT22;9219;50.396;8.546;2023-06-22T03:18:01;22.20;99.90
18189;DHT22;9219;50.396;8.546;2023-06-22T03:20:30;22.30;99.90
18189;DHT22;9219;50.396;8.546;2023-06-22T03:23:03;22.30;99.90
18189;DHT22;9219;50.396;8.546;2023-06-22T03:26:03;22.20;99.90
18189;DHT22;9219;50.396;8.546;2023-06-22T03:28:32;22.30;99.90
18189;DHT22;9219;50.396;8.546;2023-06-22T03:31:03;22.40;99.90
18189;DHT22;9219;50.396;8.546;2023-06-22T03:33:34;22.40;99.90
18189;DHT22;9219;50.396;8.546;2023-06-22T03:36:04;22.60;99.90
18189;DHT22;9219;50.396;8.546;2023-06-22T03:38:33;22.70;99.90
18189;DHT22;9219;50.396;8.546;2023-06-22T03:41:04;22.70;99.90
18189;DHT22;9219;50.396;8.546;2023-06-22T03:48:05;22.70;99.90
18189;DHT22;9219;50.396;8.546;2023-06-22T03:50:38;22.80;99.90
18189;DHT22;9219;50.396;8.546;2023-06-22T03:53:07;22.80;99.90
18189;DHT22;9219;50.396;8.546;2023-06-22T03:55:37;22.60;99.90
18189;DHT22;9219;50.396;8.546;2023-06-22T03:58:05;22.50;99.90
18189;DHT22;9219;50.396;8.546;2023-06-22T04:00:36;22.50;99.90
18189;DHT22;9219;50.396;8.546;2023-06-22T04:03:06;22.50;99.90
18189;DHT22;9219;50.396;8.546;2023-06-22T04:05:36;22.50;99.90
18189;DHT22;9219;50.396;8.546;2023-06-22T04:12:01;22.70;99.90
18189;DHT22;9219;50.396;8.546;2023-06-22T04:14:31;22.80;99.90
18189;DHT22;9219;50.396;8.546;2023-06-22T04:17:01;22.80;99.90
18189;DHT22;9219;50.396;8.546;2023-06-22T04:19:31;22.90;99.90
18189;DHT22;9219;50.396;8.546;2023-06-22T04:22:00;22.70;99.90
18189;DHT22;9219;50.396;8.546;2023-06-22T04:24:29;22.80;99.90
18189;DHT22;9219;50.396;8.546;2023-06-22T04:26:58;22.70;99.90
18189;DHT22;9219;50.396;8.546;2023-06-22T04:30:01;22.50;99.90
18189;DHT22;9219;50.396;8.546;2023-06-22T04:32:31;22.40;99.90
18189;DHT22;9219;50.396;8.546;2023-06-22T04:35:00;22.20;99.90
18189;DHT22;9219;50.396;8.546;2023-06-22T04:37:32;21.50;99.90
18189;DHT22;9219;50.396;8.546;2023-06-22T04:40:01;20.80;99.90
18189;DHT22;9219;50.396;8.546;2023-06-22T04:42:34;20.40;99.90
18189;DHT22;9219;50.396;8.546;2023-06-22T04:45:10;20.30;99.90
18189;DHT22;9219;50.396;8.546;2023-06-22T04:50:24;20.00;99.90
18189;DHT22;9219;50.396;8.546;2023-06-22T04:52:54;20.10;99.90
18189;DHT22;9219;50.396;8.546;2023-06-22T04:55:25;20.00;99.90
18189;DHT22;9219;50.396;8.546;2023-06-22T04:57:54;19.70;99.90
18189;DHT22;9219;50.396;8.546;2023-06-22T05:00:24;19.50;99.90
18189;DHT22;9219;50.396;8.546;2023-06-22T05:02:55;19.40;99.90
18189;DHT22;9219;50.396;8.546;2023-06-22T06:48:05;23.60;99.90
18189;DHT22;9219;50.396;8.546;2023-06-22T06:50:56;23.40;99.90
18189;DHT22;9219;50.396;8.546;2023-06-22T07:34:54;25.10;99.90
18189;DHT22;9219;50.396;8.546;2023-06-22T07:37:24;25.20;99.90
18189;DHT22;9219;50.396;8.546;2023-06-22T07:40:33;25.30;99.90
18189;DHT22;9219;50.396;8.546;2023-06-22T07:43:07;25.80;99.90
18189;DHT22;9219;50.396;8.546;2023-06-22T08:02:10;27.00;99.90
18189;DHT22;9219;50.396;8.546;2023-06-22T08:04:44;27.30;99.90
18189;DHT22;9219;50.396;8.546;2023-06-22T08:07:19;27.50;99.90
18189;DHT22;9219;50.396;8.546;2023-06-22T08:09:49;27.60;99.90
18189;DHT22;9219;50.396;8.546;2023-06-22T08:12:22;27.80;99.90
18189;DHT22;9219;50.396;8.546;2023-06-22T08:14:52;27.90;99.90
18189;DHT22;9219;50.396;8.546;2023-06-22T08:17:42;28.10;99.90
18189;DHT22;9219;50.396;8.546;2023-06-22T08:20:54;28.30;99.90
18189;DHT22;9219;50.396;8.546;2023-06-22T08:23:40;28.50;99.90
18189;DHT22;9219;50.396;8.546;2023-06-22T08:26:53;28.60;99.90
18189;DHT22;9219;50.396;8.546;2023-06-22T08:32:52;29.00;99.90
18189;DHT22;9219;50.396;8.546;2023-06-22T08:35:35;29.30;99.90
18189;DHT22;9219;50.396;8.546;2023-06-22T08:38:04;29.20;99.90
18189;DHT22;9219;50.396;8.546;2023-06-22T08:40:34;29.30;99.90
18189;DHT22;9219;50.396;8.546;2023-06-22T08:43:04;29.40;99.90
18189;DHT22;9219;50.396;8.546;2023-06-22T08:59:08;30.70;99.90
18189;DHT22;9219;50.396;8.546;2023-06-22T09:01:38;30.60;99.90
18189;DHT22;9219;50.396;8.546;2023-06-22T09:04:07;30.70;99.90
18189;DHT22;9219;50.396;8.546;2023-06-22T09:06:38;30.90;99.90
18189;DHT22;9219;50.396;8.546;2023-06-22T09:17:56;31.40;99.90
18189;DHT22;9219;50.396;8.546;2023-06-22T09:20:30;31.60;99.90
18189;DHT22;9219;50.396;8.546;2023-06-22T09:23:01;31.40;99.90
18189;DHT22;9219;50.396;8.546;2023-06-22T09:28:51;31.80;99.90
18189;DHT22;9219;50.396;8.546;2023-06-22T09:31:40;31.80;99.90
18189;DHT22;9219;50.396;8.546;2023-06-22T09:34:12;31.90;99.90
18189;DHT22;9219;50.396;8.546;2023-06-22T09:36:45;32.20;99.90
18189;DHT22;9219;50.396;8.546;2023-06-22T09:44:56;32.50;99.90
18189;DHT22;9219;50.396;8.546;2023-06-22T09:48:02;32.70;99.90
18189;DHT22;9219;50.396;8.546;2023-06-22T09:50:52;32.80;99.90
18189;DHT22;9219;50.396;8.546;2023-06-22T09:53:25;32.80;99.90
18189;DHT22;9219;50.396;8.546;2023-06-22T10:03:54;32.40;99.90
18189;DHT22;9219;50.396;8.546;2023-06-22T10:06:35;32.50;99.90
18189;DHT22;9219;50.396;8.546;2023-06-22T10:09:42;32.50;99.90
18189;DHT22;9219;50.396;8.546;2023-06-22T10:12:30;32.70;99.90
18189;DHT22;9219;50.396;8.546;2023-06-22T10:15:26;32.80;99.90
18189;DHT22;9219;50.396;8.546;2023-06-22T10:17:57;33.10;99.90
18189;DHT22;9219;50.396;8.546;2023-06-22T10:20:33;33.20;99.90
18189;DHT22;9219;50.396;8.546;2023-06-22T10:40:18;33.20;99.90
18189;DHT22;9219;50.396;8.546;2023-06-22T10:42:49;33.40;99.90
18189;DHT22;9219;50.396;8.546;2023-06-22T10:45:17;33.20;99.90
18189;DHT22;9219;50.396;8.546;2023-06-22T10:47:47;33.10;99.90
18189;DHT22;9219;50.396;8.546;2023-06-22T10:50:16;33.10;99.90
18189;DHT22;9219;50.396;8.546;2023-06-22T10:52:48;33.20;99.90
18189;DHT22;9219;50.396;8.546;2023-06-22T10:55:22;33.20;99.90
18189;DHT22;9219;50.396;8.546;2023-06-22T10:57:52;33.20;99.90
18189;DHT22;9219;50.396;8.546;2023-06-22T11:00:22;33.40;99.90
18189;DHT22;9219;50.396;8.546;2023-06-22T11:50:48;34.60;99.90
18189;DHT22;9219;50.396;8.546;2023-06-22T11:53:47;34.70;99.90
18189;DHT22;9219;50.396;8.546;2023-06-22T11:56:48;34.80;99.90
18189;DHT22;9219;50.396;8.546;2023-06-22T11:59:41;34.40;99.90
18189;DHT22;9219;50.396;8.546;2023-06-22T12:02:58;34.40;99.90
18189;DHT22;9219;50.396;8.546;2023-06-22T12:09:44;34.90;99.90
18189;DHT22;9219;50.396;8.546;2023-06-22T12:12:49;34.80;99.90
18189;DHT22;9219;50.396;8.546;2023-06-22T12:16:20;34.40;99.90
18189;DHT22;9219;50.396;8.546;2023-06-22T12:24:56;34.70;99.90
18189;DHT22;9219;50.396;8.546;2023-06-22T12:27:53;35.20;99.90
18189;DHT22;9219;50.396;8.546;2023-06-22T12:31:18;35.30;99.90
18189;DHT22;9219;50.396;8.546;2023-06-22T12:35:00;35.40;99.90
18189;DHT22;9219;50.396;8.546;2023-06-22T12:42:01;34.80;99.90
18189;DHT22;9219;50.396;8.546;2023-06-22T12:45:25;34.50;99.90
18189;DHT22;9219;50.396;8.546;2023-06-22T12:51:57;34.40;99.90
18189;DHT22;9219;50.396;8.546;2023-06-22T12:54:35;34.80;99.90
18189;DHT22;9219;50.396;8.546;2023-06-22T12:57:21;35.10;99.90
18189;DHT22;9219;50.396;8.546;2023-06-22T13:00:01;35.40;99.90
18189;DHT22;9219;50.396;8.546;2023-06-22T13:02:44;35.50;99.90
18189;DHT22;9219;50.396;8.546;2023-06-22T13:05:28;35.60;99.90
18189;DHT22;9219;50.396;8.546;2023-06-22T13:08:35;35.50;99.90
18189;DHT22;9219;50.396;8.546;2023-06-22T13:16:49;35.60;99.90
18189;DHT22;9219;50.396;8.546;2023-06-22T13:19:28;35.70;99.90
18189;DHT22;9219;50.396;8.546;2023-06-22T13:22:27;35.40;99.90
18189;DHT22;9219;50.396;8.546;2023-06-22T13:25:02;35.30;99.90
18189;DHT22;9219;50.396;8.546;2023-06-22T13:27:39;35.20;99.90
18189;DHT22;9219;50.396;8.546;2023-06-22T13:30:21;35.10;99.90
18189;DHT22;9219;50.396;8.546;2023-06-22T13:33:13;35.00;99.90
18189;DHT22;9219;50.396;8.546;2023-06-22T13:35:52;35.10;99.90
18189;DHT22;9219;50.396;8.546;2023-06-22T13:38:20;35.10;99.90
18189;DHT22;9219;50.396;8.546;2023-06-22T13:44:51;35.30;99.90
18189;DHT22;9219;50.396;8.546;2023-06-22T13:47:25;35.40;99.90
18189;DHT22;9219;50.396;8.546;2023-06-22T13:49:57;35.40;99.90
18189;DHT22;9219;50.396;8.546;2023-06-22T13:52:28;35.40;99.90
18189;DHT22;9219;50.396;8.546;2023-06-22T13:55:00;35.40;99.90
18189;DHT22;9219;50.396;8.546;2023-06-22T13:57:30;35.30;99.90
18189;DHT22;9219;50.396;8.546;2023-06-22T14:04:36;35.20;99.90
18189;DHT22;9219;50.396;8.546;2023-06-22T14:07:05;34.30;99.90
18189;DHT22;9219;50.396;8.546;2023-06-22T14:09:35;34.30;99.90
18189;DHT22;9219;50.396;8.546;2023-06-22T14:12:04;34.10;99.90
18189;DHT22;9219;50.396;8.546;2023-06-22T14:14:34;34.20;99.90
18189;DHT22;9219;50.396;8.546;2023-06-22T14:17:03;34.40;99.90
18189;DHT22;9219;50.396;8.546;2023-06-22T14:19:32;34.40;99.90
18189;DHT22;9219;50.396;8.546;2023-06-22T14:22:19;34.30;99.90
18189;DHT22;9219;50.396;8.546;2023-06-22T14:24:49;33.90;99.90
18189;DHT22;9219;50.396;8.546;2023-06-22T14:27:18;34.00;99.90
18189;DHT22;9219;50.396;8.546;2023-06-22T14:29:47;34.00;99.90
18189;DHT22;9219;50.396;8.546;2023-06-22T14:32:15;33.70;99.90
18189;DHT22;9219;50.396;8.546;2023-06-22T14:34:45;33.40;99.90
18189;DHT22;9219;50.396;8.546;2023-06-22T14:37:15;33.20;99.90
18189;DHT22;9219;50.396;8.546;2023-06-22T14:44:50;33.40;99.90
18189;DHT22;9219;50.396;8.546;2023-06-22T14:47:20;32.90;99.90
18189;DHT22;9219;50.396;8.546;2023-06-22T14:49:49;32.80;99.90
18189;DHT22;9219;50.396;8.546;2023-06-22T14:52:17;32.80;99.90
18189;DHT22;9219;50.396;8.546;2023-06-22T14:54:46;32.60;99.90
18189;DHT22;9219;50.396;8.546;2023-06-22T14:57:15;32.60;99.90
18189;DHT22;9219;50.396;8.546;2023-06-22T14:59:45;32.40;99.90
18189;DHT22;9219;50.396;8.546;2023-06-22T15:04:52;32.40;99.90
18189;DHT22;9219;50.396;8.546;2023-06-22T15:07:22;32.40;99.90
18189;DHT22;9219;50.396;8.546;2023-06-22T15:09:54;32.50;99.90
18189;DHT22;9219;50.396;8.546;2023-06-22T15:12:24;32.60;99.90
18189;DHT22;9219;50.396;8.546;2023-06-22T15:15:02;32.40;99.90
18189;DHT22;9219;50.396;8.546;2023-06-22T15:17:32;32.40;99.90
18189;DHT22;9219;50.396;8.546;2023-06-22T15:20:03;32.40;99.90
18189;DHT22;9219;50.396;8.546;2023-06-22T15:26:59;32.40;99.90
18189;DHT22;9219;50.396;8.546;2023-06-22T15:29:28;32.60;99.90
18189;DHT22;9219;50.396;8.546;2023-06-22T15:32:04;32.60;99.90
18189;DHT22;9219;50.396;8.546;2023-06-22T15:34:34;32.50;99.90
18189;DHT22;9219;50.396;8.546;2023-06-22T15:40:50;32.30;99.90
18189;DHT22;9219;50.396;8.546;2023-06-22T15:43:21;32.30;99.90
18189;DHT22;9219;50.396;8.546;2023-06-22T15:45:49;32.10;99.90
18189;DHT22;9219;50.396;8.546;2023-06-22T15:48:21;31.90;99.90
18189;DHT22;9219;50.396;8.546;2023-06-22T15:55:23;31.00;99.90
18189;DHT22;9219;50.396;8.546;2023-06-22T15:58:00;29.60;99.90
18189;DHT22;9219;50.396;8.546;2023-06-22T16:00:29;29.00;99.90
18189;DHT22;9219;50.396;8.546;2023-06-22T16:02:58;28.70;99.90
18189;DHT22;9219;50.396;8.546;2023-06-22T16:05:28;28.50;99.90
18189;DHT22;9219;50.396;8.546;2023-06-22T16:08:01;28.50;99.90
18189;DHT22;9219;50.396;8.546;2023-06-22T16:10:31;28.60;99.90
18189;DHT22;9219;50.396;8.546;2023-06-22T16:15:45;27.80;99.90
18189;DHT22;9219;50.396;8.546;2023-06-22T16:18:22;25.50;99.90
18189;DHT22;9219;50.396;8.546;2023-06-22T16:20:52;23.90;99.90
18189;DHT22;9219;50.396;8.546;2023-06-22T16:23:46;22.70;99.90
18189;DHT22;9219;50.396;8.546;2023-06-22T16:26:18;22.00;99.90
18189;DHT22;9219;50.396;8.546;2023-06-22T16:28:45;21.20;99.90
18189;DHT22;9219;50.396;8.546;2023-06-22T16:36:55;21.10;99.90
18189;DHT22;9219;50.396;8.546;2023-06-22T16:39:28;22.20;99.90
18189;DHT22;9219;50.396;8.546;2023-06-22T16:41:59;22.90;99.90
18189;DHT22;9219;50.396;8.546;2023-06-22T16:44:29;23.40;99.90
18189;DHT22;9219;50.396;8.546;2023-06-22T16:47:00;23.60;99.90
18189;DHT22;9219;50.396;8.546;2023-06-22T16:49:33;23.90;99.90
18189;DHT22;9219;50.396;8.546;2023-06-22T16:52:05;23.90;99.90
18189;DHT22;9219;50.396;8.546;2023-06-22T16:59:09;24.00;99.90
18189;DHT22;9219;50.396;8.546;2023-06-22T17:01:49;23.60;99.90
18189;DHT22;9219;50.396;8.546;2023-06-22T17:04:25;23.50;99.90
18189;DHT22;9219;50.396;8.546;2023-06-22T17:07:00;23.40;99.90
18189;DHT22;9219;50.396;8.546;2023-06-22T17:09:35;23.60;99.90
18189;DHT22;9219;50.396;8.546;2023-06-22T17:12:08;23.70;99.90
18189;DHT22;9219;50.396;8.546;2023-06-22T17:14:42;23.80;99.90
18189;DHT22;9219;50.396;8.546;2023-06-22T17:17:15;24.00;99.90
18189;DHT22;9219;50.396;8.546;2023-06-22T17:19:47;24.00;99.90
18189;DHT22;9219;50.396;8.546;2023-06-22T17:22:19;23.80;99.90
18189;DHT22;9219;50.396;8.546;2023-06-22T17:32:31;23.80;99.90
18189;DHT22;9219;50.396;8.546;2023-06-22T17:35:05;24.10;99.90
18189;DHT22;9219;50.396;8.546;2023-06-22T17:37:49;24.20;99.90
18189;DHT22;9219;50.396;8.546;2023-06-22T17:40:42;24.30;99.90
18189;DHT22;9219;50.396;8.546;2023-06-22T17:46:44;24.50;99.90
18189;DHT22;9219;50.396;8.546;2023-06-22T17:49:16;24.40;99.90
18189;DHT22;9219;50.396;8.546;2023-06-22T17:55:46;24.70;99.90
18189;DHT22;9219;50.396;8.546;2023-06-22T17:58:20;24.50;99.90
18189;DHT22;9219;50.396;8.546;2023-06-22T18:00:51;24.50;99.90
18189;DHT22;9219;50.396;8.546;2023-06-22T18:03:24;24.50;99.90
18189;DHT22;9219;50.396;8.546;2023-06-22T18:05:55;24.80;99.90
18189;DHT22;9219;50.396;8.546;2023-06-22T18:08:34;25.00;99.90
18189;DHT22;9219;50.396;8.546;2023-06-22T18:11:32;24.60;99.90
18189;DHT22;9219;50.396;8.546;2023-06-22T18:18:42;23.90;99.90
18189;DHT22;9219;50.396;8.546;2023-06-22T18:21:18;24.00;99.90
18189;DHT22;9219;50.396;8.546;2023-06-22T18:23:50;24.20;99.90
18189;DHT22;9219;50.396;8.546;2023-06-22T18:26:30;24.30;99.90
18189;DHT22;9219;50.396;8.546;2023-06-22T18:29:04;24.40;99.90
18189;DHT22;9219;50.396;8.546;2023-06-22T18:31:42;24.40;99.90
18189;DHT22;9219;50.396;8.546;2023-06-22T18:34:16;24.70;99.90
18189;DHT22;9219;50.396;8.546;2023-06-22T18:36:51;24.70;99.90
18189;DHT22;9219;50.396;8.546;2023-06-22T18:39:25;24.70;99.90
18189;DHT22;9219;50.396;8.546;2023-06-22T18:42:25;24.50;99.90
18189;DHT22;9219;50.396;8.546;2023-06-22T18:44:58;24.70;99.90
18189;DHT22;9219;50.396;8.546;2023-06-22T18:47:30;24.60;99.90
18189;DHT22;9219;50.396;8.546;2023-06-22T18:50:07;24.70;99.90
18189;DHT22;9219;50.396;8.546;2023-06-22T18:52:42;25.10;99.90
18189;DHT22;9219;50.396;8.546;2023-06-22T18:55:14;25.20;99.90
18189;DHT22;9219;50.396;8.546;2023-06-22T19:00:39;25.30;99.90
18189;DHT22;9219;50.396;8.546;2023-06-22T19:03:32;25.10;99.90
18189;DHT22;9219;50.396;8.546;2023-06-22T19:06:56;25.00;99.90
18189;DHT22;9219;50.396;8.546;2023-06-22T19:09:27;24.80;99.90
18189;DHT22;9219;50.396;8.546;2023-06-22T19:12:18;24.30;99.90
18189;DHT22;9219;50.396;8.546;2023-06-22T19:15:09;24.20;99.90
18189;DHT22;9219;50.396;8.546;2023-06-22T19:18:00;24.10;99.90
18189;DHT22;9219;50.396;8.546;2023-06-22T19:24:51;24.20;99.90
18189;DHT22;9219;50.396;8.546;2023-06-22T19:27:30;24.10;99.90
18189;DHT22;9219;50.396;8.546;2023-06-22T19:30:00;24.10;99.90
18189;DHT22;9219;50.396;8.546;2023-06-22T19:32:38;24.10;99.90
18189;DHT22;9219;50.396;8.546;2023-06-22T19:35:09;23.90;99.90
18189;DHT22;9219;50.396;8.546;2023-06-22T19:37:42;23.90;99.90
18189;DHT22;9219;50.396;8.546;2023-06-22T19:45:20;23.70;99.90
18189;DHT22;9219;50.396;8.546;2023-06-22T19:47:53;23.40;99.90
18189;DHT22;9219;50.396;8.546;2023-06-22T19:50:33;23.60;99.90
18189;DHT22;9219;50.396;8.546;2023-06-22T19:53:11;24.00;99.90
18189;DHT22;9219;50.396;8.546;2023-06-22T19:55:43;24.10;99.90
18189;DHT22;9219;50.396;8.546;2023-06-22T19:58:19;23.90;99.90
18189;DHT22;9219;50.396;8.546;2023-06-22T20:26:44;23.30;99.90
18189;DHT22;9219;50.396;8.546;2023-06-22T20:29:50;23.10;99.90
18189;DHT22;9219;50.396;8.546;2023-06-22T20:32:49;23.10;99.90
18189;DHT22;9219;50.396;8.546;2023-06-22T20:35:50;23.30;99.90
18189;DHT22;9219;50.396;8.546;2023-06-22T20:39:02;23.30;99.90
18189;DHT22;9219;50.396;8.546;2023-06-22T20:41:51;23.30;99.90
18189;DHT22;9219;50.396;8.546;2023-06-22T20:44:46;22.80;99.90
18189;DHT22;9219;50.396;8.546;2023-06-22T20:48:05;22.70;99.90
18189;DHT22;9219;50.396;8.546;2023-06-22T20:51:33;21.90;99.90
18189;DHT22;9219;50.396;8.546;2023-06-22T21:08:12;21.70;99.90
18189;DHT22;9219;50.396;8.546;2023-06-22T21:10:52;22.00;99.90
18189;DHT22;9219;50.396;8.546;2023-06-22T21:13:52;22.10;99.90
18189;DHT22;9219;50.396;8.546;2023-06-22T21:17:24;21.90;99.90
18189;DHT22;9219;50.396;8.546;2023-06-22T21:28:48;22.20;99.90
18189;DHT22;9219;50.396;8.546;2023-06-22T21:31:50;22.40;99.90
18189;DHT22;9219;50.396;8.546;2023-06-22T21:34:45;22.30;99.90
18189;DHT22;9219;50.396;8.546;2023-06-22T21:54:40;22.10;99.90
18189;DHT22;9219;50.396;8.546;2023-06-22T21:58:34;19.60;99.90
18189;DHT22;9219;50.396;8.546;2023-06-22T22:02:14;19.30;99.90
18189;DHT22;9219;50.396;8.546;2023-06-22T22:06:40;18.90;99.90
18189;DHT22;9219;50.396;8.546;2023-06-22T22:09:22;18.90;99.90
18189;DHT22;9219;50.396;8.546;2023-06-22T22:13:01;18.60;99.90
18189;DHT22;9219;50.396;8.546;2023-06-22T22:16:30;18.60;99.90
18189;DHT22;9219;50.396;8.546;2023-06-22T22:19:36;18.50;99.90
18189;DHT22;9219;50.396;8.546;2023-06-22T22:22:45;18.40;99.90
18189;DHT22;9219;50.396;8.546;2023-06-22T22:31:29;18.60;99.90
18189;DHT22;9219;50.396;8.546;2023-06-22T22:33:58;18.70;99.90
18189;DHT22;9219;50.396;8.546;2023-06-22T22:36:29;18.60;99.90
18189;DHT22;9219;50.396;8.546;2023-06-22T22:39:07;18.40;99.90
18189;DHT22;9219;50.396;8.546;2023-06-22T22:41:41;18.10;99.90
18189;DHT22;9219;50.396;8.546;2023-06-22T22:44:11;18.00;99.90
18189;DHT22;9219;50.396;8.546;2023-06-22T22:50:25;17.60;99.90
18189;DHT22;9219;50.396;8.546;2023-06-22T22:53:43;17.60;99.90
18189;DHT22;9219;50.396;8.546;2023-06-22T22:56:53;17.70;99.90
18189;DHT22;9219;50.396;8.546;2023-06-22T23:00:26;17.30;99.90
18189;DHT22;9219;50.396;8.546;2023-06-22T23:03:28;17.20;99.90
18189;DHT22;9219;50.396;8.546;2023-06-22T23:06:47;17.10;99.90
18189;DHT22;9219;50.396;8.546;2023-06-22T23:10:04;17.30;99.90
18189;DHT22;9219;50.396;8.546;2023-06-22T23:13:32;17.10;99.90
18189;DHT22;9219;50.396;8.546;2023-06-22T23:30:13;17.00;99.90
18189;DHT22;9219;50.396;8.546;2023-06-22T23:33:04;16.70;99.90
18189;DHT22;9219;50.396;8.546;2023-06-22T23:35:40;16.60;99.90
18189;DHT22;9219;50.396;8.546;2023-06-22T23:38:19;16.50;99.90
18189;DHT22;9219;50.396;8.546;2023-06-22T23:40:51;16.30;99.90
18189;DHT22;9219;50.396;8.546;2023-06-22T23:43:45;16.30;99.90
18189;DHT22;9219;50.396;8.546;2023-06-22T23:46:23;16.20;99.90
